sensor_id;sensor_type;location;lat;lon;timestamp;temperature;humidity
34644;DHT22;26931;43.498;-1.506;2023-05-29T00:00:17;20.80;99.90
34644;DHT22;26931;43.498;-1.506;2023-05-29T00:02:43;20.80;99.90
34644;DHT22;26931;43.498;-1.506;2023-05-29T00:05:11;20.80;99.90
34644;DHT22;26931;43.498;-1.506;2023-05-29T00:07:38;20.80;99.90
34644;DHT22;26931;43.498;-1.506;2023-05-29T00:10:05;20.80;99.90
34644;DHT22;26931;43.498;-1.506;2023-05-29T00:12:32;20.70;99.90
34644;DHT22;26931;43.498;-1.506;2023-05-29T00:14:58;20.80;99.90
34644;DHT22;26931;43.498;-1.506;2023-05-29T00:17:24;20.80;99.90
34644;DHT22;26931;43.498;-1.506;2023-05-29T00:19:50;20.70;99.90
34644;DHT22;26931;43.498;-1.506;2023-05-29T00:22:16;20.70;99.90
34644;DHT22;26931;43.498;-1.506;2023-05-29T00:24:41;20.70;99.90
34644;DHT22;26931;43.498;-1.506;2023-05-29T00:27:07;20.70;99.90
34644;DHT22;26931;43.498;-1.506;2023-05-29T00:29:34;20.70;99.90
34644;DHT22;26931;43.498;-1.506;2023-05-29T00:32:01;20.70;99.90
34644;DHT22;26931;43.498;-1.506;2023-05-29T00:34:27;20.70;99.90
34644;DHT22;26931;43.498;-1.506;2023-05-29T00:36:53;20.70;99.90
34644;DHT22;26931;43.498;-1.506;2023-05-29T00:39:21;20.70;99.90
34644;DHT22;26931;43.498;-1.506;2023-05-29T00:41:47;20.70;99.90
34644;DHT22;26931;43.498;-1.506;2023-05-29T00:44:19;20.70;99.90
34644;DHT22;26931;43.498;-1.506;2023-05-29T00:46:46;20.70;99.90
34644;DHT22;26931;43.498;-1.506;2023-05-29T00:49:13;20.70;99.90
34644;DHT22;26931;43.498;-1.506;2023-05-29T00:51:40;20.70;99.90
34644;DHT22;26931;43.498;-1.506;2023-05-29T00:54:07;20.70;99.90
34644;DHT22;26931;43.498;-1.506;2023-05-29T00:56:36;20.70;99.90
34644;DHT22;26931;43.498;-1.506;2023-05-29T00:59:02;20.70;99.90
34644;DHT22;26931;43.498;-1.506;2023-05-29T01:01:29;20.70;99.90
34644;DHT22;26931;43.498;-1.506;2023-05-29T01:03:57;20.70;99.90
34644;DHT22;26931;43.498;-1.506;2023-05-29T01:06:24;20.60;99.90
34644;DHT22;26931;43.498;-1.506;2023-05-29T01:08:50;20.60;99.90
34644;DHT22;26931;43.498;-1.506;2023-05-29T01:11:45;20.60;99.90
34644;DHT22;26931;43.498;-1.506;2023-05-29T01:14:25;20.50;99.90
34644;DHT22;26931;43.498;-1.506;2023-05-29T01:19:59;20.50;99.90
34644;DHT22;26931;43.498;-1.506;2023-05-29T01:25:19;20.50;99.90
34644;DHT22;26931;43.498;-1.506;2023-05-29T01:27:48;20.50;99.90
34644;DHT22;26931;43.498;-1.506;2023-05-29T01:30:15;20.50;99.90
34644;DHT22;26931;43.498;-1.506;2023-05-29T01:32:41;20.50;99.90
34644;DHT22;26931;43.498;-1.506;2023-05-29T01:35:08;20.40;99.90
34644;DHT22;26931;43.498;-1.506;2023-05-29T01:37:34;20.30;99.90
34644;DHT22;26931;43.498;-1.506;2023-05-29T01:40:00;20.40;99.90
34644;DHT22;26931;43.498;-1.506;2023-05-29T01:42:27;20.40;99.90
34644;DHT22;26931;43.498;-1.506;2023-05-29T01:44:55;20.40;99.90
34644;DHT22;26931;43.498;-1.506;2023-05-29T01:47:22;20.40;99.90
34644;DHT22;26931;43.498;-1.506;2023-05-29T01:49:50;20.40;99.90
34644;DHT22;26931;43.498;-1.506;2023-05-29T01:52:17;20.50;99.90
34644;DHT22;26931;43.498;-1.506;2023-05-29T01:54:43;20.50;99.90
34644;DHT22;26931;43.498;-1.506;2023-05-29T01:57:10;20.50;99.90
34644;DHT22;26931;43.498;-1.506;2023-05-29T01:59:37;20.50;99.90
34644;DHT22;26931;43.498;-1.506;2023-05-29T02:02:07;20.50;99.90
34644;DHT22;26931;43.498;-1.506;2023-05-29T02:04:33;20.50;99.90
34644;DHT22;26931;43.498;-1.506;2023-05-29T02:06:59;20.40;99.90
34644;DHT22;26931;43.498;-1.506;2023-05-29T02:09:25;20.40;99.90
34644;DHT22;26931;43.498;-1.506;2023-05-29T02:11:51;20.50;99.90
34644;DHT22;26931;43.498;-1.506;2023-05-29T02:14:17;20.50;99.90
34644;DHT22;26931;43.498;-1.506;2023-05-29T02:16:43;20.40;99.90
34644;DHT22;26931;43.498;-1.506;2023-05-29T02:19:09;20.40;99.90
34644;DHT22;26931;43.498;-1.506;2023-05-29T02:21:39;20.40;99.90
34644;DHT22;26931;43.498;-1.506;2023-05-29T02:24:08;20.40;99.90
34644;DHT22;26931;43.498;-1.506;2023-05-29T02:26:34;20.30;99.90
34644;DHT22;26931;43.498;-1.506;2023-05-29T02:29:02;20.30;99.90
34644;DHT22;26931;43.498;-1.506;2023-05-29T02:31:28;20.40;99.90
34644;DHT22;26931;43.498;-1.506;2023-05-29T02:33:54;20.40;99.90
34644;DHT22;26931;43.498;-1.506;2023-05-29T02:36:19;20.40;99.90
34644;DHT22;26931;43.498;-1.506;2023-05-29T02:38:45;20.40;99.90
34644;DHT22;26931;43.498;-1.506;2023-05-29T02:41:11;20.40;99.90
34644;DHT22;26931;43.498;-1.506;2023-05-29T02:43:37;20.40;99.90
34644;DHT22;26931;43.498;-1.506;2023-05-29T02:46:02;20.40;99.90
34644;DHT22;26931;43.498;-1.506;2023-05-29T02:48:28;20.40;99.90
34644;DHT22;26931;43.498;-1.506;2023-05-29T02:50:54;20.40;99.90
34644;DHT22;26931;43.498;-1.506;2023-05-29T02:53:20;20.40;99.90
34644;DHT22;26931;43.498;-1.506;2023-05-29T02:55:46;20.40;99.90
34644;DHT22;26931;43.498;-1.506;2023-05-29T02:58:12;20.50;99.90
34644;DHT22;26931;43.498;-1.506;2023-05-29T03:00:38;20.50;99.90
34644;DHT22;26931;43.498;-1.506;2023-05-29T03:03:04;20.50;99.90
34644;DHT22;26931;43.498;-1.506;2023-05-29T03:05:30;20.50;99.90
34644;DHT22;26931;43.498;-1.506;2023-05-29T03:07:56;20.50;99.90
34644;DHT22;26931;43.498;-1.506;2023-05-29T03:10:22;20.50;99.90
34644;DHT22;26931;43.498;-1.506;2023-05-29T03:12:48;20.50;99.90
34644;DHT22;26931;43.498;-1.506;2023-05-29T03:15:14;20.50;99.90
34644;DHT22;26931;43.498;-1.506;2023-05-29T03:17:41;20.50;99.90
34644;DHT22;26931;43.498;-1.506;2023-05-29T03:20:07;20.60;99.90
34644;DHT22;26931;43.498;-1.506;2023-05-29T03:22:36;20.50;99.90
34644;DHT22;26931;43.498;-1.506;2023-05-29T03:25:03;20.50;99.90
34644;DHT22;26931;43.498;-1.506;2023-05-29T03:27:30;20.50;99.90
34644;DHT22;26931;43.498;-1.506;2023-05-29T03:29:56;20.70;99.90
34644;DHT22;26931;43.498;-1.506;2023-05-29T03:32:23;20.50;99.90
34644;DHT22;26931;43.498;-1.506;2023-05-29T03:34:49;20.70;99.90
34644;DHT22;26931;43.498;-1.506;2023-05-29T03:37:16;20.50;99.90
34644;DHT22;26931;43.498;-1.506;2023-05-29T03:39:42;20.50;99.90
34644;DHT22;26931;43.498;-1.506;2023-05-29T03:42:08;20.50;99.90
34644;DHT22;26931;43.498;-1.506;2023-05-29T03:44:34;20.50;99.90
34644;DHT22;26931;43.498;-1.506;2023-05-29T03:47:00;20.50;99.90
34644;DHT22;26931;43.498;-1.506;2023-05-29T03:49:26;20.60;99.90
34644;DHT22;26931;43.498;-1.506;2023-05-29T03:51:52;20.50;99.90
34644;DHT22;26931;43.498;-1.506;2023-05-29T03:54:18;20.50;99.90
34644;DHT22;26931;43.498;-1.506;2023-05-29T03:56:44;20.50;99.90
34644;DHT22;26931;43.498;-1.506;2023-05-29T03:59:10;20.50;99.90
34644;DHT22;26931;43.498;-1.506;2023-05-29T04:01:36;20.50;99.90
34644;DHT22;26931;43.498;-1.506;2023-05-29T04:04:02;20.60;99.90
34644;DHT22;26931;43.498;-1.506;2023-05-29T04:06:29;20.50;99.90
34644;DHT22;26931;43.498;-1.506;2023-05-29T04:08:57;20.50;99.90
34644;DHT22;26931;43.498;-1.506;2023-05-29T04:11:23;20.50;99.90
34644;DHT22;26931;43.498;-1.506;2023-05-29T04:13:50;20.50;99.90
34644;DHT22;26931;43.498;-1.506;2023-05-29T04:16:16;20.50;99.90
34644;DHT22;26931;43.498;-1.506;2023-05-29T04:18:42;20.60;99.90
34644;DHT22;26931;43.498;-1.506;2023-05-29T04:21:08;20.50;99.90
34644;DHT22;26931;43.498;-1.506;2023-05-29T04:23:34;20.50;99.90
34644;DHT22;26931;43.498;-1.506;2023-05-29T04:26:00;20.50;99.90
34644;DHT22;26931;43.498;-1.506;2023-05-29T04:28:28;20.50;99.90
34644;DHT22;26931;43.498;-1.506;2023-05-29T04:30:55;20.50;99.90
34644;DHT22;26931;43.498;-1.506;2023-05-29T04:33:21;20.50;99.90
34644;DHT22;26931;43.498;-1.506;2023-05-29T04:35:49;20.50;99.90
34644;DHT22;26931;43.498;-1.506;2023-05-29T04:38:15;20.40;99.90
34644;DHT22;26931;43.498;-1.506;2023-05-29T04:40:42;20.50;99.90
34644;DHT22;26931;43.498;-1.506;2023-05-29T04:43:10;20.50;99.90
34644;DHT22;26931;43.498;-1.506;2023-05-29T04:45:39;20.50;99.90
34644;DHT22;26931;43.498;-1.506;2023-05-29T04:48:07;20.30;99.80
34644;DHT22;26931;43.498;-1.506;2023-05-29T04:50:40;20.50;99.90
34644;DHT22;26931;43.498;-1.506;2023-05-29T04:53:10;20.50;99.90
34644;DHT22;26931;43.498;-1.506;2023-05-29T04:55:36;20.70;99.80
34644;DHT22;26931;43.498;-1.506;2023-05-29T04:58:02;20.40;99.70
34644;DHT22;26931;43.498;-1.506;2023-05-29T05:00:28;20.30;99.60
34644;DHT22;26931;43.498;-1.506;2023-05-29T05:02:54;20.20;99.60
34644;DHT22;26931;43.498;-1.506;2023-05-29T05:05:21;20.30;99.80
34644;DHT22;26931;43.498;-1.506;2023-05-29T05:07:47;19.90;99.80
34644;DHT22;26931;43.498;-1.506;2023-05-29T05:10:13;19.90;99.90
34644;DHT22;26931;43.498;-1.506;2023-05-29T05:12:39;19.90;99.90
34644;DHT22;26931;43.498;-1.506;2023-05-29T05:15:08;19.80;99.90
34644;DHT22;26931;43.498;-1.506;2023-05-29T05:17:34;19.80;99.90
34644;DHT22;26931;43.498;-1.506;2023-05-29T05:20:04;19.70;99.90
34644;DHT22;26931;43.498;-1.506;2023-05-29T05:22:31;19.60;99.90
34644;DHT22;26931;43.498;-1.506;2023-05-29T05:24:57;19.60;99.90
34644;DHT22;26931;43.498;-1.506;2023-05-29T05:27:25;19.50;99.90
34644;DHT22;26931;43.498;-1.506;2023-05-29T05:29:51;19.60;99.90
34644;DHT22;26931;43.498;-1.506;2023-05-29T05:32:17;19.60;99.90
34644;DHT22;26931;43.498;-1.506;2023-05-29T05:34:43;19.80;99.90
34644;DHT22;26931;43.498;-1.506;2023-05-29T05:37:09;19.80;99.90
34644;DHT22;26931;43.498;-1.506;2023-05-29T05:39:38;19.60;99.90
34644;DHT22;26931;43.498;-1.506;2023-05-29T05:42:05;19.50;99.90
34644;DHT22;26931;43.498;-1.506;2023-05-29T05:44:31;19.50;99.90
34644;DHT22;26931;43.498;-1.506;2023-05-29T05:46:57;19.50;99.90
34644;DHT22;26931;43.498;-1.506;2023-05-29T05:49:23;19.60;99.90
34644;DHT22;26931;43.498;-1.506;2023-05-29T05:51:49;19.60;99.90
34644;DHT22;26931;43.498;-1.506;2023-05-29T05:54:16;19.60;99.90
34644;DHT22;26931;43.498;-1.506;2023-05-29T05:56:42;19.60;99.90
34644;DHT22;26931;43.498;-1.506;2023-05-29T05:59:08;19.60;99.90
34644;DHT22;26931;43.498;-1.506;2023-05-29T06:01:33;19.80;99.90
34644;DHT22;26931;43.498;-1.506;2023-05-29T06:03:59;19.70;99.90
34644;DHT22;26931;43.498;-1.506;2023-05-29T06:06:25;19.60;99.90
34644;DHT22;26931;43.498;-1.506;2023-05-29T06:08:51;19.50;99.90
34644;DHT22;26931;43.498;-1.506;2023-05-29T06:11:17;19.60;99.90
34644;DHT22;26931;43.498;-1.506;2023-05-29T06:13:43;19.80;99.90
34644;DHT22;26931;43.498;-1.506;2023-05-29T06:16:09;19.60;99.90
34644;DHT22;26931;43.498;-1.506;2023-05-29T06:18:36;19.60;99.90
34644;DHT22;26931;43.498;-1.506;2023-05-29T06:21:02;19.60;99.90
34644;DHT22;26931;43.498;-1.506;2023-05-29T06:23:28;19.70;99.90
34644;DHT22;26931;43.498;-1.506;2023-05-29T06:25:54;19.70;99.90
34644;DHT22;26931;43.498;-1.506;2023-05-29T06:28:20;19.90;99.90
34644;DHT22;26931;43.498;-1.506;2023-05-29T06:30:46;19.60;99.90
34644;DHT22;26931;43.498;-1.506;2023-05-29T06:33:13;19.70;99.90
34644;DHT22;26931;43.498;-1.506;2023-05-29T06:35:39;19.70;99.90
34644;DHT22;26931;43.498;-1.506;2023-05-29T06:38:07;19.70;99.90
34644;DHT22;26931;43.498;-1.506;2023-05-29T06:40:36;19.80;99.90
34644;DHT22;26931;43.498;-1.506;2023-05-29T06:43:02;19.80;99.90
34644;DHT22;26931;43.498;-1.506;2023-05-29T06:45:29;19.80;99.90
34644;DHT22;26931;43.498;-1.506;2023-05-29T06:47:55;19.80;99.90
34644;DHT22;26931;43.498;-1.506;2023-05-29T06:50:21;20.00;99.90
34644;DHT22;26931;43.498;-1.506;2023-05-29T06:52:46;19.90;99.90
34644;DHT22;26931;43.498;-1.506;2023-05-29T06:55:12;20.00;99.90
34644;DHT22;26931;43.498;-1.506;2023-05-29T06:57:38;20.00;99.90
34644;DHT22;26931;43.498;-1.506;2023-05-29T07:00:05;20.00;99.90
34644;DHT22;26931;43.498;-1.506;2023-05-29T07:02:33;19.90;99.90
34644;DHT22;26931;43.498;-1.506;2023-05-29T07:04:59;20.00;99.90
34644;DHT22;26931;43.498;-1.506;2023-05-29T07:07:25;20.00;99.90
34644;DHT22;26931;43.498;-1.506;2023-05-29T07:09:51;20.00;99.90
34644;DHT22;26931;43.498;-1.506;2023-05-29T07:12:17;19.80;99.90
34644;DHT22;26931;43.498;-1.506;2023-05-29T07:14:43;20.10;99.90
34644;DHT22;26931;43.498;-1.506;2023-05-29T07:17:10;20.00;99.90
34644;DHT22;26931;43.498;-1.506;2023-05-29T07:19:36;20.10;99.90
34644;DHT22;26931;43.498;-1.506;2023-05-29T07:22:02;20.00;99.90
34644;DHT22;26931;43.498;-1.506;2023-05-29T07:24:27;20.10;99.90
34644;DHT22;26931;43.498;-1.506;2023-05-29T07:26:53;20.20;99.90
34644;DHT22;26931;43.498;-1.506;2023-05-29T07:29:20;20.20;99.90
34644;DHT22;26931;43.498;-1.506;2023-05-29T07:31:49;20.30;99.90
34644;DHT22;26931;43.498;-1.506;2023-05-29T07:34:14;20.30;99.90
34644;DHT22;26931;43.498;-1.506;2023-05-29T07:39:25;20.40;99.90
34644;DHT22;26931;43.498;-1.506;2023-05-29T07:41:52;20.30;99.90
34644;DHT22;26931;43.498;-1.506;2023-05-29T07:44:18;20.30;99.90
34644;DHT22;26931;43.498;-1.506;2023-05-29T07:46:44;20.30;99.90
34644;DHT22;26931;43.498;-1.506;2023-05-29T07:49:10;20.40;99.90
34644;DHT22;26931;43.498;-1.506;2023-05-29T07:51:36;20.40;99.90
34644;DHT22;26931;43.498;-1.506;2023-05-29T07:54:02;20.40;99.90
34644;DHT22;26931;43.498;-1.506;2023-05-29T07:56:29;20.50;99.90
34644;DHT22;26931;43.498;-1.506;2023-05-29T07:58:57;20.50;99.90
34644;DHT22;26931;43.498;-1.506;2023-05-29T08:01:23;20.50;99.80
34644;DHT22;26931;43.498;-1.506;2023-05-29T08:03:49;20.60;99.90
34644;DHT22;26931;43.498;-1.506;2023-05-29T08:06:15;20.80;99.90
34644;DHT22;26931;43.498;-1.506;2023-05-29T08:08:41;20.70;99.90
34644;DHT22;26931;43.498;-1.506;2023-05-29T08:11:08;20.70;99.90
34644;DHT22;26931;43.498;-1.506;2023-05-29T08:13:34;20.80;99.90
34644;DHT22;26931;43.498;-1.506;2023-05-29T08:16:00;21.00;99.90
34644;DHT22;26931;43.498;-1.506;2023-05-29T08:18:26;20.90;99.80
34644;DHT22;26931;43.498;-1.506;2023-05-29T08:20:52;20.90;99.80
34644;DHT22;26931;43.498;-1.506;2023-05-29T08:23:18;20.90;99.90
34644;DHT22;26931;43.498;-1.506;2023-05-29T08:25:44;20.90;99.90
34644;DHT22;26931;43.498;-1.506;2023-05-29T08:28:10;20.90;99.90
34644;DHT22;26931;43.498;-1.506;2023-05-29T08:30:36;20.90;99.90
34644;DHT22;26931;43.498;-1.506;2023-05-29T08:33:03;20.90;99.90
34644;DHT22;26931;43.498;-1.506;2023-05-29T08:35:29;20.90;99.90
34644;DHT22;26931;43.498;-1.506;2023-05-29T08:37:55;20.90;99.90
34644;DHT22;26931;43.498;-1.506;2023-05-29T08:40:21;20.90;99.90
34644;DHT22;26931;43.498;-1.506;2023-05-29T08:45:22;20.90;99.90
34644;DHT22;26931;43.498;-1.506;2023-05-29T08:47:52;21.00;99.90
34644;DHT22;26931;43.498;-1.506;2023-05-29T08:50:20;21.00;99.90
34644;DHT22;26931;43.498;-1.506;2023-05-29T08:52:46;21.00;99.90
34644;DHT22;26931;43.498;-1.506;2023-05-29T08:55:13;21.00;99.90
34644;DHT22;26931;43.498;-1.506;2023-05-29T08:57:40;21.00;99.90
34644;DHT22;26931;43.498;-1.506;2023-05-29T09:00:09;21.00;99.90
34644;DHT22;26931;43.498;-1.506;2023-05-29T09:02:42;21.00;99.90
34644;DHT22;26931;43.498;-1.506;2023-05-29T09:05:11;21.00;99.90
34644;DHT22;26931;43.498;-1.506;2023-05-29T09:07:38;21.00;99.90
34644;DHT22;26931;43.498;-1.506;2023-05-29T09:10:09;21.00;99.90
34644;DHT22;26931;43.498;-1.506;2023-05-29T09:12:35;21.00;99.90
34644;DHT22;26931;43.498;-1.506;2023-05-29T09:15:01;21.00;99.90
34644;DHT22;26931;43.498;-1.506;2023-05-29T09:17:31;21.00;99.90
34644;DHT22;26931;43.498;-1.506;2023-05-29T09:19:59;21.00;99.90
34644;DHT22;26931;43.498;-1.506;2023-05-29T09:22:25;21.00;99.80
34644;DHT22;26931;43.498;-1.506;2023-05-29T09:24:52;21.10;99.70
34644;DHT22;26931;43.498;-1.506;2023-05-29T09:27:18;21.00;99.70
34644;DHT22;26931;43.498;-1.506;2023-05-29T09:29:45;21.00;99.60
34644;DHT22;26931;43.498;-1.506;2023-05-29T09:32:15;21.10;99.60
34644;DHT22;26931;43.498;-1.506;2023-05-29T09:34:42;21.10;99.50
34644;DHT22;26931;43.498;-1.506;2023-05-29T09:37:08;21.10;99.40
34644;DHT22;26931;43.498;-1.506;2023-05-29T09:39:45;21.10;99.40
34644;DHT22;26931;43.498;-1.506;2023-05-29T09:42:12;21.10;99.40
34644;DHT22;26931;43.498;-1.506;2023-05-29T09:44:44;21.10;99.30
34644;DHT22;26931;43.498;-1.506;2023-05-29T09:47:16;21.10;99.20
34644;DHT22;26931;43.498;-1.506;2023-05-29T09:49:43;21.10;99.20
34644;DHT22;26931;43.498;-1.506;2023-05-29T09:52:13;21.10;99.20
34644;DHT22;26931;43.498;-1.506;2023-05-29T09:54:41;21.10;99.10
34644;DHT22;26931;43.498;-1.506;2023-05-29T09:57:12;21.20;99.10
34644;DHT22;26931;43.498;-1.506;2023-05-29T09:59:41;21.30;99.10
34644;DHT22;26931;43.498;-1.506;2023-05-29T10:02:09;21.30;99.00
34644;DHT22;26931;43.498;-1.506;2023-05-29T10:04:37;21.40;98.90
34644;DHT22;26931;43.498;-1.506;2023-05-29T10:07:15;21.40;98.80
34644;DHT22;26931;43.498;-1.506;2023-05-29T10:09:44;21.50;98.70
34644;DHT22;26931;43.498;-1.506;2023-05-29T10:12:12;21.50;98.50
34644;DHT22;26931;43.498;-1.506;2023-05-29T10:14:39;21.50;98.40
34644;DHT22;26931;43.498;-1.506;2023-05-29T10:17:09;21.50;98.30
34644;DHT22;26931;43.498;-1.506;2023-05-29T10:19:38;21.60;98.30
34644;DHT22;26931;43.498;-1.506;2023-05-29T10:22:04;21.60;98.20
34644;DHT22;26931;43.498;-1.506;2023-05-29T10:24:32;21.70;98.00
34644;DHT22;26931;43.498;-1.506;2023-05-29T10:26:58;21.80;97.90
34644;DHT22;26931;43.498;-1.506;2023-05-29T10:29:39;21.80;97.80
34644;DHT22;26931;43.498;-1.506;2023-05-29T10:35:03;21.90;97.70
34644;DHT22;26931;43.498;-1.506;2023-05-29T10:37:44;21.90;97.50
34644;DHT22;26931;43.498;-1.506;2023-05-29T10:40:12;22.00;97.40
34644;DHT22;26931;43.498;-1.506;2023-05-29T10:42:45;22.00;97.30
34644;DHT22;26931;43.498;-1.506;2023-05-29T10:48:35;22.10;97.00
34644;DHT22;26931;43.498;-1.506;2023-05-29T10:51:02;22.10;96.80
34644;DHT22;26931;43.498;-1.506;2023-05-29T10:53:31;22.10;96.70
34644;DHT22;26931;43.498;-1.506;2023-05-29T10:55:59;22.20;96.40
34644;DHT22;26931;43.498;-1.506;2023-05-29T10:58:27;22.30;96.30
34644;DHT22;26931;43.498;-1.506;2023-05-29T11:00:54;22.30;96.10
34644;DHT22;26931;43.498;-1.506;2023-05-29T11:03:23;22.40;95.90
34644;DHT22;26931;43.498;-1.506;2023-05-29T11:05:59;22.40;95.80
34644;DHT22;26931;43.498;-1.506;2023-05-29T11:08:55;22.50;95.60
34644;DHT22;26931;43.498;-1.506;2023-05-29T11:13:54;22.50;95.20
34644;DHT22;26931;43.498;-1.506;2023-05-29T11:18:49;22.60;95.20
34644;DHT22;26931;43.498;-1.506;2023-05-29T11:24:23;22.60;95.10
34644;DHT22;26931;43.498;-1.506;2023-05-29T11:26:52;22.60;95.10
34644;DHT22;26931;43.498;-1.506;2023-05-29T11:29:22;22.70;95.10
34644;DHT22;26931;43.498;-1.506;2023-05-29T11:31:53;22.70;95.00
34644;DHT22;26931;43.498;-1.506;2023-05-29T11:34:22;22.70;95.00
34644;DHT22;26931;43.498;-1.506;2023-05-29T11:36:48;22.70;94.90
34644;DHT22;26931;43.498;-1.506;2023-05-29T11:39:16;22.70;94.90
34644;DHT22;26931;43.498;-1.506;2023-05-29T11:41:42;22.70;94.80
34644;DHT22;26931;43.498;-1.506;2023-05-29T11:44:08;22.70;94.80
34644;DHT22;26931;43.498;-1.506;2023-05-29T11:46:34;22.60;94.70
34644;DHT22;26931;43.498;-1.506;2023-05-29T11:49:00;22.60;94.80
34644;DHT22;26931;43.498;-1.506;2023-05-29T11:51:27;22.70;94.90
34644;DHT22;26931;43.498;-1.506;2023-05-29T11:53:53;22.60;94.90
34644;DHT22;26931;43.498;-1.506;2023-05-29T11:56:26;22.60;94.80
34644;DHT22;26931;43.498;-1.506;2023-05-29T11:58:52;22.60;94.80
34644;DHT22;26931;43.498;-1.506;2023-05-29T12:01:23;22.60;94.70
34644;DHT22;26931;43.498;-1.506;2023-05-29T12:03:50;22.50;94.60
34644;DHT22;26931;43.498;-1.506;2023-05-29T12:06:16;22.50;94.50
34644;DHT22;26931;43.498;-1.506;2023-05-29T12:08:41;22.50;94.50
34644;DHT22;26931;43.498;-1.506;2023-05-29T12:11:08;22.50;94.50
34644;DHT22;26931;43.498;-1.506;2023-05-29T12:13:34;22.50;94.50
34644;DHT22;26931;43.498;-1.506;2023-05-29T12:16:04;22.60;94.50
34644;DHT22;26931;43.498;-1.506;2023-05-29T12:18:30;22.50;94.40
34644;DHT22;26931;43.498;-1.506;2023-05-29T12:21:03;22.50;94.40
34644;DHT22;26931;43.498;-1.506;2023-05-29T12:23:29;22.50;94.40
34644;DHT22;26931;43.498;-1.506;2023-05-29T12:25:56;22.40;94.30
34644;DHT22;26931;43.498;-1.506;2023-05-29T12:28:22;22.50;94.40
34644;DHT22;26931;43.498;-1.506;2023-05-29T12:30:49;22.50;94.40
34644;DHT22;26931;43.498;-1.506;2023-05-29T12:33:34;22.40;94.50
34644;DHT22;26931;43.498;-1.506;2023-05-29T12:36:08;22.40;94.60
34644;DHT22;26931;43.498;-1.506;2023-05-29T12:38:48;22.40;94.70
34644;DHT22;26931;43.498;-1.506;2023-05-29T12:41:33;22.40;94.70
34644;DHT22;26931;43.498;-1.506;2023-05-29T12:44:02;22.30;94.80
34644;DHT22;26931;43.498;-1.506;2023-05-29T12:46:36;22.30;94.70
34644;DHT22;26931;43.498;-1.506;2023-05-29T12:49:13;22.30;94.80
34644;DHT22;26931;43.498;-1.506;2023-05-29T12:51:43;22.30;94.80
34644;DHT22;26931;43.498;-1.506;2023-05-29T12:54:12;22.30;95.20
34644;DHT22;26931;43.498;-1.506;2023-05-29T12:56:39;22.30;94.90
34644;DHT22;26931;43.498;-1.506;2023-05-29T12:59:10;22.30;94.80
34644;DHT22;26931;43.498;-1.506;2023-05-29T13:01:36;22.30;94.80
34644;DHT22;26931;43.498;-1.506;2023-05-29T13:04:04;22.30;94.70
34644;DHT22;26931;43.498;-1.506;2023-05-29T13:06:33;22.30;94.70
34644;DHT22;26931;43.498;-1.506;2023-05-29T13:08:58;22.30;94.80
34644;DHT22;26931;43.498;-1.506;2023-05-29T13:11:24;22.30;94.80
34644;DHT22;26931;43.498;-1.506;2023-05-29T13:13:51;22.30;94.90
34644;DHT22;26931;43.498;-1.506;2023-05-29T13:16:17;22.30;94.90
34644;DHT22;26931;43.498;-1.506;2023-05-29T13:18:43;22.30;94.70
34644;DHT22;26931;43.498;-1.506;2023-05-29T13:21:09;22.30;94.60
34644;DHT22;26931;43.498;-1.506;2023-05-29T13:23:39;22.30;94.60
34644;DHT22;26931;43.498;-1.506;2023-05-29T13:26:07;22.30;94.60
34644;DHT22;26931;43.498;-1.506;2023-05-29T13:28:33;22.30;94.60
34644;DHT22;26931;43.498;-1.506;2023-05-29T13:30:59;22.30;94.60
34644;DHT22;26931;43.498;-1.506;2023-05-29T13:33:25;22.30;94.30
34644;DHT22;26931;43.498;-1.506;2023-05-29T13:35:51;22.10;94.10
34644;DHT22;26931;43.498;-1.506;2023-05-29T13:38:17;22.00;94.20
34644;DHT22;26931;43.498;-1.506;2023-05-29T13:40:42;21.90;94.30
34644;DHT22;26931;43.498;-1.506;2023-05-29T13:43:08;21.90;94.50
34644;DHT22;26931;43.498;-1.506;2023-05-29T13:45:34;21.80;94.50
34644;DHT22;26931;43.498;-1.506;2023-05-29T13:48:00;21.80;94.70
34644;DHT22;26931;43.498;-1.506;2023-05-29T13:50:25;21.70;94.70
34644;DHT22;26931;43.498;-1.506;2023-05-29T13:52:52;21.70;94.80
34644;DHT22;26931;43.498;-1.506;2023-05-29T13:55:18;21.70;95.00
34644;DHT22;26931;43.498;-1.506;2023-05-29T13:57:43;21.60;95.00
34644;DHT22;26931;43.498;-1.506;2023-05-29T14:00:11;21.60;95.20
34644;DHT22;26931;43.498;-1.506;2023-05-29T14:02:37;21.60;95.40
34644;DHT22;26931;43.498;-1.506;2023-05-29T14:05:04;21.70;95.30
34644;DHT22;26931;43.498;-1.506;2023-05-29T14:07:31;21.60;95.20
34644;DHT22;26931;43.498;-1.506;2023-05-29T14:09:57;21.70;95.30
34644;DHT22;26931;43.498;-1.506;2023-05-29T14:12:22;21.80;95.40
34644;DHT22;26931;43.498;-1.506;2023-05-29T14:14:48;21.70;95.30
34644;DHT22;26931;43.498;-1.506;2023-05-29T14:17:14;21.80;95.30
34644;DHT22;26931;43.498;-1.506;2023-05-29T14:19:40;21.80;95.40
34644;DHT22;26931;43.498;-1.506;2023-05-29T14:22:06;21.80;95.40
34644;DHT22;26931;43.498;-1.506;2023-05-29T14:24:32;21.70;95.20
34644;DHT22;26931;43.498;-1.506;2023-05-29T14:26:58;21.70;95.30
34644;DHT22;26931;43.498;-1.506;2023-05-29T14:29:23;21.60;95.30
34644;DHT22;26931;43.498;-1.506;2023-05-29T14:31:49;21.60;95.60
34644;DHT22;26931;43.498;-1.506;2023-05-29T14:34:15;21.50;95.80
34644;DHT22;26931;43.498;-1.506;2023-05-29T14:36:41;21.60;95.90
34644;DHT22;26931;43.498;-1.506;2023-05-29T14:39:09;21.70;95.90
34644;DHT22;26931;43.498;-1.506;2023-05-29T14:41:35;21.80;95.80
34644;DHT22;26931;43.498;-1.506;2023-05-29T14:44:01;21.90;95.70
34644;DHT22;26931;43.498;-1.506;2023-05-29T14:46:27;21.90;95.60
34644;DHT22;26931;43.498;-1.506;2023-05-29T14:49:00;21.90;95.60
34644;DHT22;26931;43.498;-1.506;2023-05-29T14:51:26;22.00;95.60
34644;DHT22;26931;43.498;-1.506;2023-05-29T14:53:52;22.10;95.60
34644;DHT22;26931;43.498;-1.506;2023-05-29T14:56:18;22.10;95.50
34644;DHT22;26931;43.498;-1.506;2023-05-29T14:58:45;22.10;95.50
34644;DHT22;26931;43.498;-1.506;2023-05-29T15:01:11;22.10;95.50
34644;DHT22;26931;43.498;-1.506;2023-05-29T15:03:37;22.20;95.40
34644;DHT22;26931;43.498;-1.506;2023-05-29T15:06:03;22.20;95.30
34644;DHT22;26931;43.498;-1.506;2023-05-29T15:08:29;22.20;95.20
34644;DHT22;26931;43.498;-1.506;2023-05-29T15:11:00;22.20;95.20
34644;DHT22;26931;43.498;-1.506;2023-05-29T15:13:26;22.20;95.20
34644;DHT22;26931;43.498;-1.506;2023-05-29T15:15:52;22.20;95.20
34644;DHT22;26931;43.498;-1.506;2023-05-29T15:18:18;22.20;95.20
34644;DHT22;26931;43.498;-1.506;2023-05-29T15:20:43;22.20;95.20
34644;DHT22;26931;43.498;-1.506;2023-05-29T15:23:09;22.30;95.20
34644;DHT22;26931;43.498;-1.506;2023-05-29T15:25:35;22.30;95.10
34644;DHT22;26931;43.498;-1.506;2023-05-29T15:28:00;22.30;95.10
34644;DHT22;26931;43.498;-1.506;2023-05-29T15:30:26;22.20;95.00
34644;DHT22;26931;43.498;-1.506;2023-05-29T15:32:52;22.30;95.00
34644;DHT22;26931;43.498;-1.506;2023-05-29T15:35:17;22.30;95.30
34644;DHT22;26931;43.498;-1.506;2023-05-29T15:37:44;22.30;94.90
34644;DHT22;26931;43.498;-1.506;2023-05-29T15:40:10;22.40;95.00